Time;durP1;ratioP1;P1;durP2;ratioP2;P2;SDS_P1;SDS_P2;PMS_P1;PMS_P2;Temp;Humidity;BMP_temperature;BMP_pressure;BME280_temperature;BME280_humidity;BME280_pressure;Samples;Min_cycle;Max_cycle;Signal;HPM_P1;HPM_P2
2022/11/04 00:02:03;;;;;;;5.07;2.13;;;10.20;99.90;;;;;;4995960;28;20203;-69
2022/11/04 00:04:29;;;;;;;4.23;2.10;;;10.30;99.90;;;;;;4996312;28;20171;-69
2022/11/04 00:06:55;;;;;;;6.63;1.90;;;10.20;99.90;;;;;;4996077;28;20182;-69
2022/11/04 00:09:24;;;;;;;4.93;2.13;;;10.20;99.90;;;;;;4996105;28;20167;-69
2022/11/04 00:14:35;;;;;;;6.43;2.50;;;10.10;99.90;;;;;;4996074;28;20567;-69
2022/11/04 00:30:54;;;;;;;6.17;2.40;;;10.10;99.90;;;;;;4995866;28;20221;-68
2022/11/04 00:33:26;;;;;;;3.70;2.00;;;10.10;99.90;;;;;;4995468;28;20195;-70
2022/11/04 00:35:54;;;;;;;6.60;2.30;;;10.10;99.90;;;;;;4995590;28;20585;-69
2022/11/04 00:38:19;;;;;;;6.63;2.70;;;10.10;99.90;;;;;;4994596;28;20199;-69
2022/11/04 00:40:45;;;;;;;6.93;2.13;;;10.10;99.90;;;;;;4995163;28;20187;-69
2022/11/04 00:43:11;;;;;;;6.83;2.20;;;10.20;99.90;;;;;;4995404;28;20579;-68
2022/11/04 00:45:36;;;;;;;5.37;2.10;;;10.20;99.90;;;;;;4995515;28;20175;-69
2022/11/04 00:48:02;;;;;;;5.20;2.27;;;10.20;99.90;;;;;;4995386;28;20266;-69
2022/11/04 00:50:28;;;;;;;6.93;2.13;;;10.20;99.90;;;;;;4995377;28;20206;-70
2022/11/04 00:53:01;;;;;;;7.10;1.90;;;10.30;99.90;;;;;;4995311;28;20174;-69
2022/11/04 00:55:27;;;;;;;3.87;2.33;;;10.30;99.90;;;;;;4994897;28;20187;-69
2022/11/04 00:57:53;;;;;;;7.13;2.40;;;10.40;99.90;;;;;;4995296;28;20176;-69
2022/11/04 01:00:19;;;;;;;7.97;2.60;;;10.40;99.90;;;;;;4993692;28;20696;-69
2022/11/04 01:02:45;;;;;;;7.77;2.43;;;10.50;99.90;;;;;;4995114;28;20175;-70
2022/11/04 01:05:10;;;;;;;5.57;2.00;;;10.60;99.90;;;;;;4994947;28;20175;-69
2022/11/04 01:07:36;;;;;;;6.77;2.33;;;10.50;99.90;;;;;;4994979;28;20262;-69
2022/11/04 01:10:02;;;;;;;7.00;2.20;;;10.60;99.90;;;;;;4994585;28;20222;-69
2022/11/04 01:12:28;;;;;;;10.10;2.70;;;10.60;99.90;;;;;;4993545;28;20207;-68
2022/11/04 01:14:54;;;;;;;6.80;2.47;;;10.60;99.90;;;;;;4994790;28;20222;-69
2022/11/04 01:17:19;;;;;;;5.80;2.10;;;10.60;99.90;;;;;;4994692;28;20570;-69
2022/11/04 01:19:45;;;;;;;6.67;2.13;;;10.50;99.90;;;;;;4994618;28;20215;-68
2022/11/04 01:22:10;;;;;;;6.53;2.00;;;10.50;99.90;;;;;;4994567;28;20703;-68
2022/11/04 01:24:36;;;;;;;6.60;2.20;;;10.50;99.90;;;;;;4994400;28;20175;-69
2022/11/04 01:27:01;;;;;;;5.23;1.77;;;10.50;99.90;;;;;;4994659;28;20186;-69
2022/11/04 01:29:27;;;;;;;8.57;2.30;;;10.50;99.90;;;;;;4994440;28;20265;-68
2022/11/04 01:31:53;;;;;;;7.27;2.20;;;10.40;99.90;;;;;;4992933;28;20235;-68
2022/11/04 01:34:18;;;;;;;5.20;2.43;;;10.40;99.90;;;;;;4993297;28;20643;-69
2022/11/04 01:36:44;;;;;;;6.17;2.40;;;10.40;99.90;;;;;;4994383;28;20171;-69
2022/11/04 01:39:12;;;;;;;9.87;2.30;;;10.30;99.90;;;;;;4994268;28;20215;-68
2022/11/04 01:41:37;;;;;;;8.53;2.23;;;10.30;99.90;;;;;;4994273;28;20178;-69
2022/11/04 01:44:41;;;;;;;5.60;2.30;;;10.30;99.90;;;;;;4994301;28;20167;-69
2022/11/04 01:47:16;;;;;;;5.73;2.03;;;10.30;99.90;;;;;;4994278;28;20631;-69
2022/11/04 01:49:43;;;;;;;7.17;2.23;;;10.30;99.90;;;;;;4994158;28;20178;-69
2022/11/04 01:52:54;;;;;;;6.57;2.30;;;10.30;99.90;;;;;;4994065;28;20536;-70
2022/11/04 01:55:24;;;;;;;8.90;2.50;;;10.30;99.90;;;;;;4972781;28;20222;-68
2022/11/04 01:57:51;;;;;;;11.03;2.37;;;10.30;99.90;;;;;;4972475;28;20635;-69
2022/11/04 02:00:17;;;;;;;10.10;2.40;;;10.30;99.90;;;;;;4972492;28;20223;-69
2022/11/04 02:02:57;;;;;;;11.20;2.70;;;10.30;99.90;;;;;;4972551;28;20172;-69
2022/11/04 02:05:23;;;;;;;7.73;2.33;;;10.20;99.90;;;;;;4972689;28;20167;-70
2022/11/04 02:07:51;;;;;;;6.90;1.90;;;10.20;99.90;;;;;;4972204;28;20184;-69
2022/11/04 02:10:21;;;;;;;8.50;2.30;;;10.20;99.90;;;;;;4972412;28;20318;-69
2022/11/04 02:12:49;;;;;;;4.80;2.17;;;10.10;99.90;;;;;;4972452;28;20176;-69
2022/11/04 02:15:35;;;;;;;6.47;2.17;;;10.20;99.90;;;;;;4972323;28;20172;-69
2022/11/04 02:18:25;;;;;;;8.60;2.50;;;10.10;99.90;;;;;;4943328;28;20667;-69
2022/11/04 02:21:12;;;;;;;7.57;2.47;;;10.10;99.90;;;;;;4972392;28;20331;-69
2022/11/04 02:24:14;;;;;;;13.23;3.20;;;10.10;99.90;;;;;;4971901;28;20255;-68
2022/11/04 02:27:14;;;;;;;6.60;2.33;;;10.10;99.90;;;;;;4988319;28;20187;-69
2022/11/04 02:29:59;;;;;;;9.53;2.70;;;10.10;99.90;;;;;;4993769;28;20171;-68
2022/11/04 02:32:30;;;;;;;6.27;2.30;;;10.10;99.90;;;;;;4993439;28;20418;-68
2022/11/04 02:35:09;;;;;;;8.10;2.70;;;10.10;99.90;;;;;;4992506;28;20303;-68
2022/11/04 02:37:59;;;;;;;10.30;2.97;;;10.10;99.90;;;;;;4993343;28;20189;-69
2022/11/04 02:40:37;;;;;;;12.67;3.17;;;10.20;99.90;;;;;;4992251;28;20223;-69
2022/11/04 02:43:34;;;;;;;9.93;3.00;;;10.20;99.90;;;;;;4993616;28;20172;-69
2022/11/04 02:46:06;;;;;;;7.40;2.90;;;10.30;99.90;;;;;;4993337;28;20183;-69
2022/11/04 02:48:37;;;;;;;8.10;2.90;;;10.40;99.90;;;;;;4993484;28;20526;-69
2022/11/04 02:51:09;;;;;;;8.20;3.23;;;10.40;99.90;;;;;;4993220;28;20183;-69
2022/11/04 02:53:46;;;;;;;6.03;2.87;;;10.50;99.90;;;;;;4993432;28;20661;-69
2022/11/04 02:56:13;;;;;;;6.13;2.73;;;10.50;99.90;;;;;;4993687;28;20182;-67
2022/11/04 02:58:49;;;;;;;10.20;3.63;;;10.50;99.90;;;;;;4992193;28;20663;-69
2022/11/04 03:01:17;;;;;;;6.17;3.17;;;10.60;99.90;;;;;;4992273;28;20179;-69
2022/11/04 03:03:48;;;;;;;7.63;3.13;;;10.60;99.90;;;;;;4997253;28;20274;-69
2022/11/04 03:06:18;;;;;;;6.67;3.00;;;10.60;99.90;;;;;;4995628;28;20254;-68
2022/11/04 03:08:47;;;;;;;7.00;3.07;;;10.60;99.90;;;;;;4995964;28;20171;-69
2022/11/04 03:11:20;;;;;;;8.40;3.40;;;10.70;99.90;;;;;;4997065;28;20171;-69
2022/11/04 03:13:58;;;;;;;8.77;3.40;;;10.70;99.90;;;;;;4996909;28;20182;-68
2022/11/04 03:16:38;;;;;;;8.13;3.30;;;10.70;99.90;;;;;;4997100;28;20194;-69
2022/11/04 03:19:22;;;;;;;8.47;3.20;;;10.80;99.90;;;;;;4997008;28;20203;-68
2022/11/04 03:22:16;;;;;;;9.63;3.53;;;10.70;99.90;;;;;;4996927;28;20167;-69
2022/11/04 03:24:44;;;;;;;6.57;3.33;;;10.60;99.90;;;;;;4995752;28;20636;-68
2022/11/04 03:27:22;;;;;;;8.17;3.57;;;10.60;99.90;;;;;;4995554;28;20635;-69
2022/11/04 03:30:07;;;;;;;8.93;3.67;;;10.70;99.90;;;;;;4996944;28;20203;-67
2022/11/04 03:32:39;;;;;;;8.00;2.70;;;10.80;99.90;;;;;;4996238;28;20635;-69
2022/11/04 03:35:06;;;;;;;13.40;3.40;;;10.90;99.90;;;;;;4996435;28;20359;-68
2022/11/04 03:37:32;;;;;;;12.30;3.63;;;10.90;99.90;;;;;;4996874;28;20199;-69
2022/11/04 03:39:58;;;;;;;7.33;3.40;;;10.90;99.90;;;;;;4996362;28;20203;-68
2022/11/04 03:42:26;;;;;;;9.33;3.03;;;11.00;99.90;;;;;;4996476;28;20221;-69
2022/11/04 03:44:54;;;;;;;8.60;3.40;;;11.00;99.90;;;;;;4996436;28;20281;-69
2022/11/04 03:47:23;;;;;;;7.97;3.20;;;11.10;99.90;;;;;;4995080;28;20527;-68
2022/11/04 03:49:56;;;;;;;8.40;3.20;;;11.10;99.90;;;;;;4995946;28;20628;-69
2022/11/04 03:52:21;;;;;;;10.27;3.00;;;11.20;99.90;;;;;;4996325;28;20167;-69
2022/11/04 03:54:47;;;;;;;5.90;3.00;;;11.10;99.90;;;;;;4996296;28;20180;-68
2022/11/04 03:57:15;;;;;;;9.40;3.00;;;11.10;99.90;;;;;;4994802;28;20171;-68
2022/11/04 04:00:01;;;;;;;8.37;3.00;;;11.10;99.90;;;;;;4994888;28;20287;-69
2022/11/04 04:02:48;;;;;;;6.90;2.97;;;11.10;99.90;;;;;;4996232;28;20179;-69
2022/11/04 04:05:28;;;;;;;12.30;3.03;;;11.00;99.90;;;;;;4996112;28;20167;-68
2022/11/04 04:08:14;;;;;;;10.23;3.50;;;11.00;99.90;;;;;;4996094;28;20179;-69
2022/11/04 04:11:19;;;;;;;3.03;2.27;;;11.00;99.90;;;;;;4995821;28;20175;-68
2022/11/04 04:13:45;;;;;;;6.33;2.97;;;11.10;99.90;;;;;;4974343;28;20171;-68
2022/11/04 04:16:22;;;;;;;9.27;2.80;;;11.00;99.90;;;;;;4974055;28;20203;-69
2022/11/04 04:18:53;;;;;;;8.10;3.20;;;11.00;99.90;;;;;;4973924;28;20230;-69
2022/11/04 04:21:22;;;;;;;10.67;3.03;;;11.00;99.90;;;;;;4973996;28;20212;-69
2022/11/04 04:29:22;;;;;;;7.60;3.13;;;11.10;99.90;;;;;;4974330;28;20228;-68
2022/11/04 04:31:48;;;;;;;9.27;2.77;;;11.10;99.90;;;;;;4956920;28;20801;-68
2022/11/04 04:34:28;;;;;;;10.10;3.10;;;11.10;99.90;;;;;;4973469;28;20184;-69
2022/11/04 04:37:26;;;;;;;11.47;3.27;;;11.20;99.90;;;;;;4973975;28;20199;-69
2022/11/04 04:45:34;;;;;;;12.33;3.17;;;11.30;99.90;;;;;;4897808;29;20539;-68
2022/11/04 04:48:00;;;;;;;11.43;3.13;;;11.30;99.90;;;;;;4921310;29;20340;-69
2022/11/04 04:50:36;;;;;;;8.00;2.90;;;11.30;99.90;;;;;;4934990;29;20653;-69
2022/11/04 04:53:05;;;;;;;8.50;2.80;;;11.20;99.90;;;;;;4934609;29;20637;-69
2022/11/04 04:55:31;;;;;;;9.50;2.60;;;11.30;99.90;;;;;;4934890;29;20209;-69
2022/11/04 04:57:57;;;;;;;10.47;3.63;;;11.30;99.90;;;;;;4934871;29;20609;-68
2022/11/04 05:00:23;;;;;;;9.10;2.50;;;11.50;99.90;;;;;;4934478;29;20264;-69
2022/11/04 05:02:49;;;;;;;8.57;3.10;;;11.40;99.90;;;;;;4934567;29;20330;-68
2022/11/04 05:05:15;;;;;;;7.73;2.93;;;11.50;99.90;;;;;;4934222;29;20185;-68
2022/11/04 05:07:41;;;;;;;8.20;2.43;;;11.50;99.90;;;;;;4934890;29;20335;-69
2022/11/04 05:10:09;;;;;;;5.50;2.90;;;11.50;99.90;;;;;;4918400;29;20704;-68
2022/11/04 05:15:19;;;;;;;8.40;2.80;;;11.50;99.90;;;;;;4961717;28;20186;-68
2022/11/04 05:17:45;;;;;;;9.20;2.60;;;11.50;99.90;;;;;;4994208;28;20195;-67
2022/11/04 05:20:11;;;;;;;7.30;2.33;;;11.50;99.90;;;;;;4994170;28;20202;-67
2022/11/04 05:22:37;;;;;;;7.57;2.90;;;11.40;99.90;;;;;;4994080;28;20175;-69
2022/11/04 05:25:02;;;;;;;8.03;2.90;;;11.40;99.90;;;;;;4993674;28;20187;-69
2022/11/04 05:27:28;;;;;;;8.03;2.50;;;11.40;99.90;;;;;;4994446;28;20179;-70
2022/11/04 05:29:54;;;;;;;13.53;3.30;;;11.40;99.90;;;;;;4993688;28;20183;-69
2022/11/04 05:32:19;;;;;;;9.90;3.00;;;11.40;99.90;;;;;;4993987;28;20301;-69
2022/11/04 05:34:46;;;;;;;6.20;2.27;;;11.50;99.90;;;;;;4992783;28;20187;-68
2022/11/04 05:37:12;;;;;;;7.63;2.87;;;11.40;99.90;;;;;;4994158;28;20284;-68
2022/11/04 05:39:37;;;;;;;7.50;3.00;;;11.40;99.90;;;;;;4993763;28;21148;-69
2022/11/04 05:42:03;;;;;;;12.10;3.47;;;11.30;99.90;;;;;;4993954;28;20174;-70
2022/11/04 05:44:29;;;;;;;7.23;3.13;;;11.30;99.90;;;;;;4993716;28;20624;-68
2022/11/04 05:46:54;;;;;;;11.17;3.00;;;11.20;99.90;;;;;;4993705;28;20293;-68
2022/11/04 05:49:20;;;;;;;7.93;3.00;;;11.30;99.90;;;;;;4993302;28;20615;-69
2022/11/04 05:51:45;;;;;;;10.30;3.20;;;11.30;99.90;;;;;;4993527;28;20599;-68
2022/11/04 05:54:11;;;;;;;9.87;2.97;;;11.30;99.90;;;;;;4993403;28;20262;-68
2022/11/04 05:56:37;;;;;;;8.07;3.37;;;11.30;99.90;;;;;;4992574;28;20648;-68
2022/11/04 05:59:02;;;;;;;11.37;3.33;;;11.30;99.90;;;;;;4993030;28;20263;-68
2022/11/04 06:01:33;;;;;;;6.67;2.90;;;11.30;99.90;;;;;;4993797;28;20175;-69
2022/11/04 06:04:00;;;;;;;9.07;3.40;;;11.30;99.90;;;;;;4993758;28;20666;-69
2022/11/04 06:06:28;;;;;;;8.43;2.97;;;11.20;99.90;;;;;;4993510;28;20186;-69
2022/11/04 06:08:54;;;;;;;9.63;3.03;;;11.30;99.90;;;;;;4993444;28;20163;-69
2022/11/04 06:11:21;;;;;;;5.50;2.83;;;11.20;99.90;;;;;;4993682;28;20186;-69
2022/11/04 06:13:47;;;;;;;4.90;2.90;;;11.20;99.90;;;;;;4993179;28;20326;-68
2022/11/04 06:16:13;;;;;;;6.90;3.30;;;11.20;99.90;;;;;;4992559;28;20303;-70
2022/11/04 06:18:38;;;;;;;11.37;3.33;;;11.10;99.90;;;;;;4992241;28;20214;-68
2022/11/04 06:21:24;;;;;;;9.40;3.50;;;11.10;99.90;;;;;;4992772;28;20262;-70
2022/11/04 06:23:51;;;;;;;7.43;2.80;;;11.10;99.90;;;;;;4991527;28;20254;-69
2022/11/04 06:26:16;;;;;;;12.57;3.33;;;11.10;99.90;;;;;;4993226;28;20182;-68
2022/11/04 06:28:42;;;;;;;11.07;3.50;;;11.10;99.90;;;;;;4992844;28;20600;-68
2022/11/04 06:31:09;;;;;;;12.67;3.23;;;11.20;99.90;;;;;;4992607;28;20572;-67
2022/11/04 06:33:35;;;;;;;8.30;3.17;;;11.30;99.90;;;;;;4992854;28;20174;-68
2022/11/04 06:36:03;;;;;;;12.43;3.43;;;11.20;99.90;;;;;;4993027;28;20175;-70
2022/11/04 06:38:30;;;;;;;9.80;3.40;;;11.20;99.90;;;;;;4996798;28;20202;-69
2022/11/04 06:40:56;;;;;;;15.13;3.33;;;11.10;99.90;;;;;;4997175;28;20670;-69
2022/11/04 06:43:22;;;;;;;13.97;3.47;;;11.10;99.90;;;;;;4995971;28;20175;-69
2022/11/04 06:45:58;;;;;;;7.33;2.90;;;11.10;99.90;;;;;;4995187;28;20183;-69
2022/11/04 06:48:24;;;;;;;8.37;2.90;;;11.00;99.90;;;;;;4996427;28;20175;-70
2022/11/04 06:50:50;;;;;;;7.50;2.90;;;11.10;99.90;;;;;;4994797;28;20219;-70
2022/11/04 06:53:16;;;;;;;7.23;2.70;;;11.10;99.90;;;;;;4996559;28;20534;-68
2022/11/04 06:55:41;;;;;;;8.97;2.87;;;11.20;99.90;;;;;;4996182;28;20184;-68
2022/11/04 06:58:08;;;;;;;16.37;2.77;;;11.20;99.90;;;;;;4996034;28;20171;-68
2022/11/04 07:00:33;;;;;;;9.47;3.00;;;11.20;99.90;;;;;;4996557;28;20207;-70
2022/11/04 07:02:59;;;;;;;10.30;3.30;;;11.30;99.90;;;;;;4996428;28;20209;-69
2022/11/04 07:05:24;;;;;;;9.10;2.70;;;11.40;99.90;;;;;;4996138;28;20655;-69
2022/11/04 07:07:50;;;;;;;7.87;2.80;;;11.50;99.90;;;;;;4996290;28;20207;-70
2022/11/04 07:10:16;;;;;;;9.37;2.93;;;11.50;99.90;;;;;;4996226;28;20186;-68
2022/11/04 07:12:42;;;;;;;9.07;3.33;;;11.50;99.90;;;;;;4995728;28;20344;-68
2022/11/04 07:15:08;;;;;;;7.67;3.03;;;11.60;99.90;;;;;;4995229;28;20181;-70
2022/11/04 07:17:33;;;;;;;8.57;2.97;;;11.50;99.90;;;;;;4995590;28;20199;-69
2022/11/04 07:19:59;;;;;;;7.47;2.90;;;11.50;99.90;;;;;;4994148;28;20217;-68
2022/11/04 07:22:24;;;;;;;8.70;3.20;;;11.60;99.90;;;;;;4995912;28;20179;-69
2022/11/04 07:24:50;;;;;;;7.50;2.80;;;11.70;99.90;;;;;;4994061;28;20186;-68
2022/11/04 07:27:16;;;;;;;9.53;3.70;;;11.80;99.90;;;;;;4995033;28;20179;-68
2022/11/04 07:29:41;;;;;;;9.13;3.20;;;11.90;99.90;;;;;;4995490;28;20689;-69
2022/11/04 07:32:07;;;;;;;11.47;3.40;;;12.10;99.90;;;;;;4994297;28;20258;-69
2022/11/04 07:34:32;;;;;;;9.30;3.40;;;12.20;99.90;;;;;;4990457;28;20187;-69
2022/11/04 07:36:58;;;;;;;11.00;3.17;;;12.20;99.90;;;;;;4990515;28;20190;-69
2022/11/04 07:39:24;;;;;;;10.17;3.17;;;12.30;99.90;;;;;;4994031;28;20203;-69
2022/11/04 07:41:49;;;;;;;13.07;3.07;;;12.20;99.90;;;;;;5000001;28;20190;-69
2022/11/04 07:44:15;;;;;;;12.70;3.57;;;12.30;99.90;;;;;;5001006;28;20183;-70
2022/11/04 07:46:40;;;;;;;9.37;3.00;;;12.20;99.90;;;;;;5008165;28;20179;-69
2022/11/04 07:49:06;;;;;;;7.63;2.90;;;12.40;99.90;;;;;;4993379;28;20610;-70
2022/11/04 07:51:32;;;;;;;10.93;3.00;;;12.40;99.90;;;;;;5000411;28;20281;-70
2022/11/04 07:53:58;;;;;;;10.03;3.00;;;12.30;99.90;;;;;;5002308;28;20250;-70
2022/11/04 07:56:24;;;;;;;16.30;3.83;;;12.30;99.90;;;;;;5007274;28;20175;-70
2022/11/04 07:58:51;;;;;;;10.80;3.33;;;12.40;99.90;;;;;;4996868;28;20203;-70
2022/11/04 08:01:19;;;;;;;7.13;2.90;;;12.50;99.90;;;;;;5008507;28;20190;-69
2022/11/04 08:03:45;;;;;;;10.83;3.27;;;12.60;99.90;;;;;;5002713;28;20191;-69
2022/11/04 08:06:13;;;;;;;13.47;3.13;;;12.60;99.90;;;;;;5000479;28;20206;-69
2022/11/04 08:08:38;;;;;;;9.00;3.30;;;12.50;99.90;;;;;;4994600;28;20180;-70
2022/11/04 08:11:07;;;;;;;10.13;3.30;;;12.50;99.90;;;;;;5009581;28;20230;-70
2022/11/04 08:13:35;;;;;;;11.57;3.17;;;12.60;99.90;;;;;;5000351;28;20221;-68
2022/11/04 08:16:12;;;;;;;8.27;3.33;;;12.50;99.90;;;;;;5001998;28;20210;-70
2022/11/04 08:18:38;;;;;;;9.63;3.03;;;12.70;99.90;;;;;;5009951;28;20194;-69
2022/11/04 08:21:04;;;;;;;6.83;2.73;;;12.80;99.90;;;;;;4997168;28;20680;-69
2022/11/04 08:23:31;;;;;;;10.80;3.17;;;12.60;99.90;;;;;;5006610;28;20230;-69
2022/11/04 08:25:57;;;;;;;11.60;2.60;;;12.60;99.90;;;;;;5004225;28;20269;-70
2022/11/04 08:28:23;;;;;;;9.33;3.53;;;12.60;99.90;;;;;;4999696;28;20289;-69
2022/11/04 08:31:05;;;;;;;9.90;2.83;;;12.60;99.90;;;;;;4940951;28;1114116;-70
2022/11/04 08:33:32;;;;;;;7.20;2.90;;;12.30;99.90;;;;;;5003843;28;20245;-69
2022/11/04 08:36:02;;;;;;;6.03;3.50;;;12.20;99.90;;;;;;5003688;28;20187;-68
2022/11/04 08:38:28;;;;;;;12.27;3.30;;;12.30;99.90;;;;;;5006238;28;20174;-69
2022/11/04 08:40:56;;;;;;;6.30;2.80;;;12.30;99.90;;;;;;5010906;28;20194;-69
2022/11/04 08:43:22;;;;;;;12.73;4.00;;;12.40;99.90;;;;;;5000214;28;20171;-69
2022/11/04 08:45:48;;;;;;;8.50;3.30;;;12.50;99.90;;;;;;5005327;28;20669;-70
2022/11/04 08:48:15;;;;;;;8.30;3.03;;;12.40;99.90;;;;;;5006034;28;20510;-70
2022/11/04 08:50:41;;;;;;;12.67;4.10;;;12.30;99.90;;;;;;4996966;28;20181;-69
2022/11/04 08:53:07;;;;;;;7.27;3.00;;;12.30;99.90;;;;;;5007895;28;20257;-68
2022/11/04 08:55:33;;;;;;;11.60;3.13;;;12.40;99.90;;;;;;5004098;28;20187;-69
2022/11/04 08:58:00;;;;;;;10.07;3.77;;;12.60;99.90;;;;;;5008992;28;20549;-70
2022/11/04 09:00:26;;;;;;;11.03;3.03;;;12.70;99.90;;;;;;5003322;28;20219;-68
2022/11/04 09:02:51;;;;;;;8.43;3.60;;;12.80;99.90;;;;;;5004966;28;20262;-69
2022/11/04 09:05:17;;;;;;;10.20;3.30;;;13.00;99.90;;;;;;5007725;28;20230;-69
2022/11/04 09:07:43;;;;;;;8.77;3.30;;;12.90;99.90;;;;;;5002410;28;20170;-68
2022/11/04 09:10:09;;;;;;;8.43;3.53;;;12.90;99.90;;;;;;5000672;28;20171;-70
2022/11/04 09:12:35;;;;;;;7.37;3.30;;;13.00;99.90;;;;;;5008698;28;20713;-69
2022/11/04 09:15:03;;;;;;;9.37;3.50;;;13.10;99.90;;;;;;4996746;28;20174;-69
2022/11/04 09:17:29;;;;;;;10.67;3.60;;;13.30;99.90;;;;;;5006521;28;20273;-70
2022/11/04 09:19:54;;;;;;;9.67;3.67;;;13.50;99.90;;;;;;5003753;28;20302;-70
2022/11/04 09:22:20;;;;;;;7.73;3.23;;;13.70;99.90;;;;;;4998010;28;20286;-70
2022/11/04 09:24:45;;;;;;;5.93;2.97;;;13.80;99.90;;;;;;5009419;28;20171;-70
2022/11/04 09:27:11;;;;;;;11.57;4.13;;;13.80;99.90;;;;;;4997821;28;20650;-70
2022/11/04 09:29:37;;;;;;;8.23;3.30;;;14.00;99.90;;;;;;5004166;28;20636;-70
2022/11/04 09:32:03;;;;;;;7.60;3.33;;;14.20;99.90;;;;;;4992978;28;20300;-70
2022/11/04 09:34:29;;;;;;;15.80;3.93;;;14.20;99.90;;;;;;5006899;28;20175;-71
2022/11/04 09:36:56;;;;;;;10.00;3.60;;;14.20;99.90;;;;;;4996140;28;20247;-70
2022/11/04 09:39:22;;;;;;;11.17;3.77;;;14.20;99.90;;;;;;5007130;28;20238;-70
2022/11/04 09:42:24;;;;;;;9.80;3.87;;;14.20;99.90;;;;;;4987890;28;20198;-70
2022/11/04 09:45:06;;;;;;;10.07;3.90;;;14.40;99.90;;;;;;4995742;28;20631;-71
2022/11/04 09:47:34;;;;;;;9.90;3.80;;;14.60;99.90;;;;;;4996489;28;20198;-70
2022/11/04 09:50:01;;;;;;;13.60;4.43;;;14.80;99.90;;;;;;5008814;28;20268;-70
2022/11/04 09:52:29;;;;;;;13.47;4.37;;;14.90;99.90;;;;;;5000472;28;20199;-70
2022/11/04 09:55:08;;;;;;;18.90;7.40;;;15.00;99.90;;;;;;5003444;28;20229;-70
2022/11/04 09:57:34;;;;;;;12.17;4.37;;;15.20;99.90;;;;;;4994168;28;20171;-70
2022/11/04 09:59:59;;;;;;;8.13;4.50;;;15.40;99.90;;;;;;4991317;28;20268;-70
2022/11/04 10:02:41;;;;;;;8.60;4.10;;;15.80;99.90;;;;;;4992630;28;20261;-70
2022/11/04 10:05:38;;;;;;;8.47;4.20;;;16.10;99.90;;;;;;4991711;28;20550;-70
2022/11/04 10:08:08;;;;;;;10.00;4.13;;;16.30;99.90;;;;;;4983346;28;20234;-71
2022/11/04 10:10:49;;;;;;;7.00;3.87;;;16.30;99.90;;;;;;5008824;28;20179;-69
2022/11/04 10:13:23;;;;;;;8.70;3.50;;;16.20;99.90;;;;;;4998111;28;20179;-70
2022/11/04 10:16:13;;;;;;;11.83;4.30;;;16.30;99.90;;;;;;5007986;28;20199;-69
2022/11/04 10:18:56;;;;;;;9.93;4.13;;;16.10;99.90;;;;;;5002661;28;20277;-69
2022/11/04 10:21:43;;;;;;;9.30;4.63;;;16.00;99.90;;;;;;4996575;28;20262;-70
2022/11/04 10:24:12;;;;;;;12.57;4.50;;;15.80;99.90;;;;;;4972816;28;20194;-70
2022/11/04 10:26:43;;;;;;;10.30;4.17;;;15.70;99.90;;;;;;4973881;28;20172;-68
2022/11/04 10:29:15;;;;;;;11.53;4.67;;;15.20;99.90;;;;;;4988648;28;20179;-70
2022/11/04 10:31:44;;;;;;;8.00;3.93;;;15.00;99.90;;;;;;4992144;28;20223;-70
2022/11/04 10:34:32;;;;;;;9.93;4.27;;;14.70;99.90;;;;;;4991166;28;20198;-68
2022/11/04 10:36:57;;;;;;;12.47;3.80;;;14.80;99.90;;;;;;4985966;28;20171;-70
2022/11/04 10:39:34;;;;;;;9.73;4.33;;;14.70;99.90;;;;;;4997729;28;20268;-71
2022/11/04 10:42:02;;;;;;;7.17;3.97;;;14.70;99.90;;;;;;4998618;28;20183;-70
2022/11/04 10:44:35;;;;;;;8.43;3.90;;;14.70;99.90;;;;;;4991962;28;20179;-69
2022/11/04 10:47:07;;;;;;;10.23;5.23;;;14.80;99.90;;;;;;4979488;28;20205;-72
2022/11/04 10:49:47;;;;;;;9.53;4.00;;;14.80;99.90;;;;;;5004049;28;20177;-72
2022/11/04 10:52:12;;;;;;;9.90;4.20;;;14.70;99.90;;;;;;5005451;28;20276;-70
2022/11/04 10:54:44;;;;;;;16.20;4.43;;;14.80;99.90;;;;;;5000152;28;20664;-70
2022/11/04 10:57:11;;;;;;;10.17;4.67;;;14.70;99.90;;;;;;5006804;28;20640;-71
2022/11/04 11:00:04;;;;;;;9.63;4.93;;;14.50;99.90;;;;;;5000607;28;20212;-71
2022/11/04 11:02:35;;;;;;;12.57;7.57;;;14.60;99.90;;;;;;5012506;28;20236;-71
2022/11/04 11:05:16;;;;;;;15.80;8.17;;;14.40;99.90;;;;;;5012263;28;20257;-70
2022/11/04 11:07:43;;;;;;;13.27;7.83;;;14.30;99.90;;;;;;5012036;28;20181;-71
2022/11/04 11:10:16;;;;;;;13.53;7.63;;;14.20;99.90;;;;;;5012031;28;20202;-71
2022/11/04 11:12:49;;;;;;;9.90;7.77;;;14.30;99.90;;;;;;5012256;28;20170;-69
2022/11/04 11:15:24;;;;;;;14.87;8.17;;;14.30;99.90;;;;;;5011811;28;20162;-70
2022/11/04 11:17:56;;;;;;;15.80;8.43;;;14.30;99.90;;;;;;5012020;28;20170;-70
2022/11/04 11:20:24;;;;;;;10.30;7.83;;;14.40;99.90;;;;;;5012187;28;20666;-71
2022/11/04 11:22:50;;;;;;;12.97;8.03;;;14.40;99.90;;;;;;5013172;28;20630;-71
2022/11/04 11:25:29;;;;;;;13.70;7.90;;;14.50;99.90;;;;;;5013957;28;20324;-71
2022/11/04 11:27:59;;;;;;;13.97;7.27;;;14.60;99.90;;;;;;5015465;28;20217;-71
2022/11/04 11:30:27;;;;;;;12.10;7.33;;;14.60;99.90;;;;;;5015807;28;20174;-70
2022/11/04 11:32:59;;;;;;;13.77;6.67;;;14.60;99.90;;;;;;5014728;28;20221;-70
2022/11/04 11:35:29;;;;;;;11.70;6.17;;;14.50;99.90;;;;;;5015554;28;20207;-71
2022/11/04 11:37:56;;;;;;;15.80;7.17;;;14.60;99.90;;;;;;5015542;28;20571;-70
2022/11/04 11:40:24;;;;;;;12.00;6.97;;;15.10;99.90;;;;;;5015512;28;20795;-71
2022/11/04 11:42:50;;;;;;;11.00;5.93;;;15.40;99.90;;;;;;5014974;28;20163;-71
2022/11/04 11:45:16;;;;;;;12.00;5.40;;;15.20;99.90;;;;;;5015550;28;20634;-70
2022/11/04 11:47:42;;;;;;;8.60;5.37;;;15.20;99.90;;;;;;5014930;28;20189;-70
2022/11/04 11:50:14;;;;;;;7.67;5.50;;;15.50;99.90;;;;;;5015008;28;20171;-70
2022/11/04 11:52:41;;;;;;;13.13;6.17;;;15.50;99.90;;;;;;5015211;28;20175;-70
2022/11/04 11:55:26;;;;;;;10.90;5.63;;;15.60;99.90;;;;;;5015094;28;20171;-69
2022/11/04 11:58:07;;;;;;;11.23;6.10;;;15.70;99.90;;;;;;4995277;28;20226;-71
2022/11/04 12:00:41;;;;;;;10.30;5.77;;;15.80;99.90;;;;;;4991080;28;20750;-70
2022/11/04 12:03:43;;;;;;;9.07;5.30;;;15.70;99.90;;;;;;4975948;28;20183;-70
2022/11/04 12:06:25;;;;;;;10.37;5.80;;;15.70;99.90;;;;;;4986679;28;20201;-70
2022/11/04 12:08:54;;;;;;;11.73;6.50;;;15.60;99.90;;;;;;4983282;28;20197;-70
2022/11/04 12:11:49;;;;;;;9.23;6.53;;;15.60;99.90;;;;;;5013018;28;20167;-69
2022/11/04 12:14:19;;;;;;;8.17;6.03;;;15.60;99.90;;;;;;4975494;28;20184;-69
2022/11/04 12:16:55;;;;;;;9.77;6.07;;;15.40;99.90;;;;;;4987078;28;20218;-70
2022/11/04 12:20:04;;;;;;;10.43;7.10;;;15.20;99.90;;;;;;4971475;28;20230;-70
2022/11/04 12:22:50;;;;;;;10.37;5.67;;;15.40;99.90;;;;;;4916133;29;20177;-70
2022/11/04 12:25:23;;;;;;;11.80;5.80;;;15.40;99.90;;;;;;4916227;29;20193;-70
2022/11/04 12:28:07;;;;;;;10.87;6.20;;;15.10;99.90;;;;;;4915463;29;20209;-71
2022/11/04 12:30:45;;;;;;;9.97;6.10;;;15.20;99.90;;;;;;4914108;29;20431;-70
2022/11/04 12:33:39;;;;;;;11.70;6.53;;;15.20;99.90;;;;;;4915427;29;20288;-70
2022/11/04 12:36:23;;;;;;;13.70;6.57;;;15.40;99.90;;;;;;4915066;29;20196;-70
2022/11/04 12:39:14;;;;;;;11.20;7.20;;;15.40;99.90;;;;;;4915353;29;20222;-70
2022/11/04 12:41:45;;;;;;;15.87;7.60;;;15.30;99.90;;;;;;4915588;29;20696;-70
2022/11/04 12:44:26;;;;;;;12.43;6.73;;;15.20;99.90;;;;;;4915268;29;20182;-69
2022/11/04 12:47:32;;;;;;;12.83;6.80;;;15.20;99.90;;;;;;4904360;29;20197;-70
2022/11/04 12:50:34;;;;;;;9.73;6.50;;;15.10;99.90;;;;;;4908572;29;20318;-69
2022/11/04 12:53:32;;;;;;;12.43;6.57;;;15.00;99.90;;;;;;4889409;29;20647;-69
2022/11/04 12:56:10;;;;;;;11.23;6.20;;;15.00;99.90;;;;;;4858054;29;20188;-69
2022/11/04 12:58:54;;;;;;;14.33;5.97;;;14.90;99.90;;;;;;4885676;29;20198;-71
2022/11/04 13:01:35;;;;;;;8.90;5.20;;;15.00;99.90;;;;;;4914732;29;20186;-70
2022/11/04 13:04:09;;;;;;;12.37;6.10;;;15.00;99.90;;;;;;4938251;29;20182;-70
2022/11/04 13:06:55;;;;;;;10.70;6.00;;;15.00;99.90;;;;;;4935862;29;20185;-70
2022/11/04 13:09:33;;;;;;;8.87;5.47;;;15.10;99.90;;;;;;4926743;29;20177;-69
2022/11/04 13:12:04;;;;;;;8.40;6.00;;;15.10;99.90;;;;;;4947628;29;20535;-69
2022/11/04 13:14:36;;;;;;;11.63;6.27;;;15.10;99.90;;;;;;4933639;29;20203;-70
2022/11/04 13:17:09;;;;;;;11.97;7.03;;;15.10;99.90;;;;;;4940631;29;20176;-70
2022/11/04 13:19:45;;;;;;;12.63;7.23;;;15.00;99.90;;;;;;4940671;28;20221;-69
2022/11/04 13:22:38;;;;;;;10.37;7.80;;;15.10;99.90;;;;;;4929936;28;20729;-69
2022/11/04 13:25:12;;;;;;;15.67;8.83;;;14.90;99.90;;;;;;4931497;29;20193;-69
2022/11/04 13:27:44;;;;;;;18.07;8.93;;;14.80;99.90;;;;;;4931013;29;20225;-70
2022/11/04 13:30:44;;;;;;;14.13;8.77;;;14.80;99.90;;;;;;4947871;29;20207;-69
2022/11/04 13:33:16;;;;;;;10.70;8.77;;;14.80;99.90;;;;;;4955528;28;20574;-69
2022/11/04 13:35:53;;;;;;;10.90;9.00;;;14.70;99.90;;;;;;4986447;28;20172;-69
2022/11/04 13:38:27;;;;;;;17.30;10.00;;;14.80;99.90;;;;;;4976477;28;20203;-69